sensor_id;sensor_type;location;lat;lon;timestamp;pressure;altitude;pressure_sealevel;temperature;humidity
78986;BME280;68384;55.750;48.746;2023-03-16T00:01:04;100016.25;;;1.76;72.19
78986;BME280;68384;55.750;48.746;2023-03-16T00:02:08;100023.03;;;1.75;72.14
78986;BME280;68384;55.750;48.746;2023-03-16T00:03:12;100020.47;;;1.75;71.50
78986;BME280;68384;55.750;48.746;2023-03-16T00:04:20;100021.16;;;1.73;71.60
78986;BME280;68384;55.750;48.746;2023-03-16T00:05:24;100024.78;;;1.76;71.33
78986;BME280;68384;55.750;48.746;2023-03-16T00:06:27;100019.69;;;1.76;71.12
78986;BME280;68384;55.750;48.746;2023-03-16T00:07:30;100015.59;;;1.78;71.53
78986;BME280;68384;55.750;48.746;2023-03-16T00:08:34;100015.47;;;1.77;71.45
78986;BME280;68384;55.750;48.746;2023-03-16T00:09:40;100021.47;;;1.77;71.86
78986;BME280;68384;55.750;48.746;2023-03-16T00:10:43;100017.13;;;1.76;71.65
78986;BME280;68384;55.750;48.746;2023-03-16T00:11:48;100025.81;;;1.78;71.74
78986;BME280;68384;55.750;48.746;2023-03-16T00:12:50;100031.00;;;1.80;71.90
78986;BME280;68384;55.750;48.746;2023-03-16T00:13:54;100035.00;;;1.76;72.17
78986;BME280;68384;55.750;48.746;2023-03-16T00:14:57;100029.91;;;1.76;71.99
78986;BME280;68384;55.750;48.746;2023-03-16T00:16:02;100027.34;;;1.76;71.93
78986;BME280;68384;55.750;48.746;2023-03-16T00:17:05;100009.59;;;1.78;71.96
78986;BME280;68384;55.750;48.746;2023-03-16T00:18:09;100020.78;;;1.80;71.95
78986;BME280;68384;55.750;48.746;2023-03-16T00:19:11;100021.56;;;1.79;72.02
78986;BME280;68384;55.750;48.746;2023-03-16T00:20:16;100020.69;;;1.78;71.74
78986;BME280;68384;55.750;48.746;2023-03-16T00:21:19;100022.25;;;1.76;71.94
78986;BME280;68384;55.750;48.746;2023-03-16T00:22:23;100022.16;;;1.75;71.89
78986;BME280;68384;55.750;48.746;2023-03-16T00:23:27;100014.56;;;1.76;71.81
78986;BME280;68384;55.750;48.746;2023-03-16T00:24:32;100009.16;;;1.72;71.67
78986;BME280;68384;55.750;48.746;2023-03-16T00:25:35;100029.13;;;1.77;71.72
78986;BME280;68384;55.750;48.746;2023-03-16T00:26:38;100023.13;;;1.77;71.52
78986;BME280;68384;55.750;48.746;2023-03-16T00:27:41;100024.13;;;1.79;71.54
78986;BME280;68384;55.750;48.746;2023-03-16T00:28:44;100018.22;;;1.80;71.37
78986;BME280;68384;55.750;48.746;2023-03-16T00:29:48;100024.13;;;1.79;71.61
78986;BME280;68384;55.750;48.746;2023-03-16T00:30:57;100023.25;;;1.78;71.73
78986;BME280;68384;55.750;48.746;2023-03-16T00:32:00;100017.25;;;1.78;71.40
78986;BME280;68384;55.750;48.746;2023-03-16T00:33:04;100021.38;;;1.76;71.43
78986;BME280;68384;55.750;48.746;2023-03-16T00:34:07;100009.47;;;1.76;71.39
78986;BME280;68384;55.750;48.746;2023-03-16T00:35:10;100011.25;;;1.77;71.35
78986;BME280;68384;55.750;48.746;2023-03-16T00:36:13;99989.75;;;1.62;71.34
78986;BME280;68384;55.750;48.746;2023-03-16T00:37:19;100013.72;;;1.76;71.48
78986;BME280;68384;55.750;48.746;2023-03-16T00:38:21;99984.22;;;1.56;71.41
78986;BME280;68384;55.750;48.746;2023-03-16T00:39:25;100011.63;;;1.70;71.25
78986;BME280;68384;55.750;48.746;2023-03-16T00:40:29;100018.03;;;1.77;71.09
78986;BME280;68384;55.750;48.746;2023-03-16T00:41:34;99999.91;;;1.74;71.04
78986;BME280;68384;55.750;48.746;2023-03-16T00:42:40;100006.22;;;1.79;70.92
78986;BME280;68384;55.750;48.746;2023-03-16T00:43:43;100004.56;;;1.79;71.08
78986;BME280;68384;55.750;48.746;2023-03-16T00:44:46;99992.69;;;1.80;70.77
78986;BME280;68384;55.750;48.746;2023-03-16T00:45:50;99985.59;;;1.76;70.45
78986;BME280;68384;55.750;48.746;2023-03-16T00:46:58;99978.78;;;1.76;70.33
78986;BME280;68384;55.750;48.746;2023-03-16T00:48:02;99995.81;;;1.76;70.30
78986;BME280;68384;55.750;48.746;2023-03-16T00:49:05;99998.38;;;1.76;69.97
78986;BME280;68384;55.750;48.746;2023-03-16T00:50:09;99968.22;;;1.59;69.56
78986;BME280;68384;55.750;48.746;2023-03-16T00:51:14;100007.78;;;1.77;69.04
78986;BME280;68384;55.750;48.746;2023-03-16T00:52:18;99991.47;;;1.75;69.04
78986;BME280;68384;55.750;48.746;2023-03-16T00:53:21;100008.13;;;1.81;68.84
78986;BME280;68384;55.750;48.746;2023-03-16T00:54:25;100004.78;;;1.82;68.38
78986;BME280;68384;55.750;48.746;2023-03-16T00:55:29;99976.31;;;1.65;68.44
78986;BME280;68384;55.750;48.746;2023-03-16T00:56:34;99999.13;;;1.86;68.02
78986;BME280;68384;55.750;48.746;2023-03-16T00:57:37;100016.19;;;1.87;67.93
78986;BME280;68384;55.750;48.746;2023-03-16T00:58:41;100006.19;;;1.90;68.07
78986;BME280;68384;55.750;48.746;2023-03-16T00:59:44;100012.28;;;1.92;67.75
78986;BME280;68384;55.750;48.746;2023-03-16T01:00:48;100004.44;;;1.89;67.43
78986;BME280;68384;55.750;48.746;2023-03-16T01:01:51;100006.53;;;1.95;66.86
78986;BME280;68384;55.750;48.746;2023-03-16T01:02:55;100006.53;;;1.95;66.90
78986;BME280;68384;55.750;48.746;2023-03-16T01:03:58;100010.06;;;1.97;66.65
78986;BME280;68384;55.750;48.746;2023-03-16T01:05:03;100005.72;;;1.96;66.15
78986;BME280;68384;55.750;48.746;2023-03-16T01:06:08;100007.59;;;1.98;66.04
78986;BME280;68384;55.750;48.746;2023-03-16T01:07:13;100007.94;;;2.03;65.98
78986;BME280;68384;55.750;48.746;2023-03-16T01:08:15;100010.50;;;2.03;65.82
78986;BME280;68384;55.750;48.746;2023-03-16T01:09:19;100004.56;;;2.04;65.75
78986;BME280;68384;55.750;48.746;2023-03-16T01:10:22;100009.59;;;2.03;65.68
78986;BME280;68384;55.750;48.746;2023-03-16T01:11:27;100015.69;;;2.05;64.86
78986;BME280;68384;55.750;48.746;2023-03-16T01:12:29;100013.91;;;2.04;65.22
78986;BME280;68384;55.750;48.746;2023-03-16T01:13:33;100011.47;;;2.05;65.13
78986;BME280;68384;55.750;48.746;2023-03-16T01:14:36;100005.56;;;2.06;65.59
78986;BME280;68384;55.750;48.746;2023-03-16T01:15:41;100002.34;;;2.09;65.29
78986;BME280;68384;55.750;48.746;2023-03-16T01:16:43;99978.28;;;1.93;65.21
78986;BME280;68384;55.750;48.746;2023-03-16T01:17:47;99997.88;;;2.06;64.84
78986;BME280;68384;55.750;48.746;2023-03-16T01:18:50;100000.56;;;2.08;64.95
78986;BME280;68384;55.750;48.746;2023-03-16T01:19:54;100004.91;;;2.09;64.97
78986;BME280;68384;55.750;48.746;2023-03-16T01:20:57;100001.13;;;2.04;64.55
78986;BME280;68384;55.750;48.746;2023-03-16T01:22:00;100002.34;;;2.09;64.58
78986;BME280;68384;55.750;48.746;2023-03-16T01:23:03;100005.09;;;2.12;64.60
78986;BME280;68384;55.750;48.746;2023-03-16T01:24:08;100002.53;;;2.12;64.44
78986;BME280;68384;55.750;48.746;2023-03-16T01:25:11;100000.84;;;2.12;64.58
78986;BME280;68384;55.750;48.746;2023-03-16T01:26:15;100000.97;;;2.14;64.54
78986;BME280;68384;55.750;48.746;2023-03-16T01:27:20;99999.97;;;2.12;64.36
78986;BME280;68384;55.750;48.746;2023-03-16T01:28:29;99995.66;;;2.11;64.08
78986;BME280;68384;55.750;48.746;2023-03-16T01:29:32;99997.63;;;2.15;63.93
78986;BME280;68384;55.750;48.746;2023-03-16T01:30:36;99989.94;;;2.15;63.69
78986;BME280;68384;55.750;48.746;2023-03-16T01:31:38;99984.84;;;2.15;64.16
78986;BME280;68384;55.750;48.746;2023-03-16T01:32:43;99978.75;;;2.13;64.21
78986;BME280;68384;55.750;48.746;2023-03-16T01:33:45;99979.34;;;2.09;64.40
78986;BME280;68384;55.750;48.746;2023-03-16T01:34:50;99987.09;;;2.10;64.05
78986;BME280;68384;55.750;48.746;2023-03-16T01:35:53;99975.19;;;2.11;63.88
78986;BME280;68384;55.750;48.746;2023-03-16T01:36:57;99978.44;;;2.08;64.29
78986;BME280;68384;55.750;48.746;2023-03-16T01:38:00;99981.78;;;2.07;64.59
78986;BME280;68384;55.750;48.746;2023-03-16T01:39:05;99985.00;;;2.05;64.31
78986;BME280;68384;55.750;48.746;2023-03-16T01:40:10;99968.56;;;2.01;64.21
78986;BME280;68384;55.750;48.746;2023-03-16T01:41:14;99982.38;;;2.03;63.84
78986;BME280;68384;55.750;48.746;2023-03-16T01:42:17;99974.47;;;2.00;64.12
78986;BME280;68384;55.750;48.746;2023-03-16T01:43:22;99981.56;;;2.04;64.00
78986;BME280;68384;55.750;48.746;2023-03-16T01:44:26;99977.91;;;2.00;63.92
78986;BME280;68384;55.750;48.746;2023-03-16T01:46:12;99974.56;;;2.02;63.38
78986;BME280;68384;55.750;48.746;2023-03-16T01:47:15;99975.16;;;1.97;63.23
78986;BME280;68384;55.750;48.746;2023-03-16T01:48:19;99987.16;;;1.98;62.52
78986;BME280;68384;55.750;48.746;2023-03-16T01:49:28;99976.72;;;1.95;62.98
78986;BME280;68384;55.750;48.746;2023-03-16T01:50:34;99983.91;;;2.01;62.84
78986;BME280;68384;55.750;48.746;2023-03-16T01:51:40;99985.56;;;2.00;62.94
78986;BME280;68384;55.750;48.746;2023-03-16T01:52:45;99979.59;;;2.00;62.07
78986;BME280;68384;55.750;48.746;2023-03-16T01:53:49;99984.59;;;1.98;62.40
78986;BME280;68384;55.750;48.746;2023-03-16T01:54:57;99980.47;;;2.00;62.26
78986;BME280;68384;55.750;48.746;2023-03-16T01:56:05;99982.16;;;2.00;62.41
78986;BME280;68384;55.750;48.746;2023-03-16T01:57:12;99983.13;;;2.02;62.08
78986;BME280;68384;55.750;48.746;2023-03-16T01:58:17;99980.47;;;2.00;61.63
78986;BME280;68384;55.750;48.746;2023-03-16T01:59:25;99981.47;;;2.03;61.53
78986;BME280;68384;55.750;48.746;2023-03-16T02:00:30;99979.47;;;1.98;61.69
78986;BME280;68384;55.750;48.746;2023-03-16T02:01:34;99981.56;;;2.04;61.74
78986;BME280;68384;55.750;48.746;2023-03-16T02:02:39;99971.34;;;2.04;61.38
78986;BME280;68384;55.750;48.746;2023-03-16T02:03:44;99970.44;;;2.04;61.49
78986;BME280;68384;55.750;48.746;2023-03-16T02:04:51;99976.44;;;2.04;61.33
78986;BME280;68384;55.750;48.746;2023-03-16T02:05:58;99978.91;;;2.03;60.62
78986;BME280;68384;55.750;48.746;2023-03-16T02:07:07;99978.09;;;2.04;60.81
78986;BME280;68384;55.750;48.746;2023-03-16T02:08:10;99979.91;;;2.05;61.09
78986;BME280;68384;55.750;48.746;2023-03-16T02:09:15;99984.31;;;2.07;60.91
78986;BME280;68384;55.750;48.746;2023-03-16T02:10:19;99975.75;;;2.07;60.88
78986;BME280;68384;55.750;48.746;2023-03-16T02:11:23;99979.91;;;2.05;60.81
78986;BME280;68384;55.750;48.746;2023-03-16T02:12:27;99986.69;;;2.04;60.39
78986;BME280;68384;55.750;48.746;2023-03-16T02:13:32;99988.03;;;1.99;60.71
78986;BME280;68384;55.750;48.746;2023-03-16T02:14:39;99990.88;;;2.04;60.20
78986;BME280;68384;55.750;48.746;2023-03-16T02:15:43;99985.91;;;2.05;60.39
78986;BME280;68384;55.750;48.746;2023-03-16T02:16:46;99989.22;;;2.04;60.28
78986;BME280;68384;55.750;48.746;2023-03-16T02:17:50;99991.78;;;2.04;60.11
78986;BME280;68384;55.750;48.746;2023-03-16T02:18:53;99985.69;;;2.02;60.51
78986;BME280;68384;55.750;48.746;2023-03-16T02:20:05;99997.72;;;2.03;60.64
78986;BME280;68384;55.750;48.746;2023-03-16T02:21:18;99998.56;;;2.04;60.57
78986;BME280;68384;55.750;48.746;2023-03-16T02:22:27;99997.59;;;2.02;60.43
78986;BME280;68384;55.750;48.746;2023-03-16T02:23:30;99999.38;;;2.03;60.49
78986;BME280;68384;55.750;48.746;2023-03-16T02:24:34;99992.47;;;2.02;60.25
78986;BME280;68384;55.750;48.746;2023-03-16T02:25:41;99998.47;;;2.02;60.90
78986;BME280;68384;55.750;48.746;2023-03-16T02:26:52;100002.69;;;2.02;60.59
78986;BME280;68384;55.750;48.746;2023-03-16T02:28:02;100006.22;;;2.04;60.46
78986;BME280;68384;55.750;48.746;2023-03-16T02:29:18;99996.91;;;2.04;60.41
78986;BME280;68384;55.750;48.746;2023-03-16T02:30:23;99996.13;;;2.05;60.68
78986;BME280;68384;55.750;48.746;2023-03-16T02:31:28;99997.78;;;2.05;60.27
78986;BME280;68384;55.750;48.746;2023-03-16T02:32:31;99993.38;;;2.02;60.22
78986;BME280;68384;55.750;48.746;2023-03-16T02:33:36;99999.59;;;2.06;60.39
78986;BME280;68384;55.750;48.746;2023-03-16T02:34:40;100003.13;;;2.08;60.59
78986;BME280;68384;55.750;48.746;2023-03-16T02:35:44;100004.69;;;2.06;60.72
78986;BME280;68384;55.750;48.746;2023-03-16T02:36:48;100011.56;;;2.07;60.62
78986;BME280;68384;55.750;48.746;2023-03-16T02:37:54;100009.00;;;2.07;60.62
78986;BME280;68384;55.750;48.746;2023-03-16T02:38:57;100006.44;;;2.07;60.32
78986;BME280;68384;55.750;48.746;2023-03-16T02:40:01;100009.91;;;2.07;60.59
78986;BME280;68384;55.750;48.746;2023-03-16T02:41:10;99971.22;;;1.89;60.26
78986;BME280;68384;55.750;48.746;2023-03-16T02:42:17;100009.22;;;2.10;60.56
78986;BME280;68384;55.750;48.746;2023-03-16T02:43:24;100017.78;;;2.10;60.51
78986;BME280;68384;55.750;48.746;2023-03-16T02:44:32;100000.56;;;2.08;60.73
78986;BME280;68384;55.750;48.746;2023-03-16T02:45:39;100005.69;;;2.08;60.37
78986;BME280;68384;55.750;48.746;2023-03-16T02:46:47;100009.13;;;2.08;60.19
78986;BME280;68384;55.750;48.746;2023-03-16T02:47:52;100008.22;;;2.08;60.49
78986;BME280;68384;55.750;48.746;2023-03-16T02:49:00;99997.78;;;2.05;60.86
78986;BME280;68384;55.750;48.746;2023-03-16T02:50:05;100003.69;;;2.04;60.42
78986;BME280;68384;55.750;48.746;2023-03-16T02:51:09;100005.25;;;2.02;60.17
78986;BME280;68384;55.750;48.746;2023-03-16T02:52:12;100002.69;;;2.02;60.14
78986;BME280;68384;55.750;48.746;2023-03-16T02:53:16;99996.69;;;2.01;60.86
78986;BME280;68384;55.750;48.746;2023-03-16T02:54:18;100003.59;;;2.02;60.53
78986;BME280;68384;55.750;48.746;2023-03-16T02:55:23;99994.72;;;1.97;60.01
78986;BME280;68384;55.750;48.746;2023-03-16T02:56:26;100001.59;;;1.98;60.59
78986;BME280;68384;55.750;48.746;2023-03-16T02:57:29;99978.66;;;1.86;60.35
78986;BME280;68384;55.750;48.746;2023-03-16T02:58:33;100008.50;;;1.99;60.41
78986;BME280;68384;55.750;48.746;2023-03-16T02:59:36;100002.19;;;1.94;60.64
78986;BME280;68384;55.750;48.746;2023-03-16T03:00:41;99998.72;;;1.93;60.41
78986;BME280;68384;55.750;48.746;2023-03-16T03:01:44;100001.06;;;1.90;60.29
78986;BME280;68384;55.750;48.746;2023-03-16T03:02:47;100011.50;;;1.93;60.28
78986;BME280;68384;55.750;48.746;2023-03-16T03:03:50;100008.75;;;1.90;60.53
78986;BME280;68384;55.750;48.746;2023-03-16T03:04:53;100006.19;;;1.90;60.63
78986;BME280;68384;55.750;48.746;2023-03-16T03:05:56;100003.53;;;1.89;60.59
78986;BME280;68384;55.750;48.746;2023-03-16T03:06:59;100005.19;;;1.88;60.62
78986;BME280;68384;55.750;48.746;2023-03-16T03:08:06;100001.00;;;1.89;61.20
78986;BME280;68384;55.750;48.746;2023-03-16T03:09:10;100005.19;;;1.88;60.77
78986;BME280;68384;55.750;48.746;2023-03-16T03:10:12;100005.00;;;1.85;61.02
78986;BME280;68384;55.750;48.746;2023-03-16T03:11:16;100003.78;;;1.80;60.51
78986;BME280;68384;55.750;48.746;2023-03-16T03:12:20;99997.56;;;1.77;60.61
78986;BME280;68384;55.750;48.746;2023-03-16T03:13:24;100009.44;;;1.88;60.45
78986;BME280;68384;55.750;48.746;2023-03-16T03:14:26;100000.66;;;1.84;60.13
78986;BME280;68384;55.750;48.746;2023-03-16T03:15:30;100005.88;;;1.86;60.34
78986;BME280;68384;55.750;48.746;2023-03-16T03:16:34;100008.31;;;1.84;59.84
78986;BME280;68384;55.750;48.746;2023-03-16T03:17:38;100009.22;;;1.85;60.14
78986;BME280;68384;55.750;48.746;2023-03-16T03:18:41;100013.63;;;1.87;60.20
78986;BME280;68384;55.750;48.746;2023-03-16T03:19:45;100005.09;;;1.87;60.32
78986;BME280;68384;55.750;48.746;2023-03-16T03:20:47;100017.78;;;1.85;60.29
78986;BME280;68384;55.750;48.746;2023-03-16T03:21:51;100012.66;;;1.85;60.08
78986;BME280;68384;55.750;48.746;2023-03-16T03:22:57;100014.44;;;1.86;60.12
78986;BME280;68384;55.750;48.746;2023-03-16T03:24:01;100015.22;;;1.85;60.15
78986;BME280;68384;55.750;48.746;2023-03-16T03:25:05;99989.38;;;1.69;59.67
78986;BME280;68384;55.750;48.746;2023-03-16T03:26:09;100012.56;;;1.84;59.67
78986;BME280;68384;55.750;48.746;2023-03-16T03:27:12;100013.56;;;1.86;59.95
78986;BME280;68384;55.750;48.746;2023-03-16T03:28:16;100019.56;;;1.86;59.44
78986;BME280;68384;55.750;48.746;2023-03-16T03:29:18;100018.75;;;1.87;59.82
78986;BME280;68384;55.750;48.746;2023-03-16T03:30:23;100012.09;;;1.89;59.47
78986;BME280;68384;55.750;48.746;2023-03-16T03:31:26;100011.50;;;1.93;59.56
78986;BME280;68384;55.750;48.746;2023-03-16T03:32:31;100014.06;;;1.93;59.02
78986;BME280;68384;55.750;48.746;2023-03-16T03:33:34;100013.19;;;1.93;59.17
78986;BME280;68384;55.750;48.746;2023-03-16T03:34:38;100004.44;;;1.89;58.92
78986;BME280;68384;55.750;48.746;2023-03-16T03:35:41;100006.41;;;1.93;58.79
78986;BME280;68384;55.750;48.746;2023-03-16T03:36:44;100014.06;;;1.93;58.97
78986;BME280;68384;55.750;48.746;2023-03-16T03:37:48;100021.53;;;1.90;58.55
78986;BME280;68384;55.750;48.746;2023-03-16T03:38:51;100025.19;;;1.94;58.55
78986;BME280;68384;55.750;48.746;2023-03-16T03:39:56;100013.19;;;1.93;58.89
78986;BME280;68384;55.750;48.746;2023-03-16T03:40:59;100017.59;;;1.95;58.83
78986;BME280;68384;55.750;48.746;2023-03-16T03:42:02;100022.16;;;1.99;58.21
78986;BME280;68384;55.750;48.746;2023-03-16T03:43:06;100016.25;;;2.00;58.61
78986;BME280;68384;55.750;48.746;2023-03-16T03:44:08;100012.03;;;2.01;58.10
78986;BME280;68384;55.750;48.746;2023-03-16T03:45:13;99996.84;;;1.91;57.97
78986;BME280;68384;55.750;48.746;2023-03-16T03:46:16;100014.72;;;2.03;58.22
78986;BME280;68384;55.750;48.746;2023-03-16T03:47:20;100016.47;;;2.04;58.13
78986;BME280;68384;55.750;48.746;2023-03-16T03:48:24;100005.16;;;2.00;58.18
78986;BME280;68384;55.750;48.746;2023-03-16T03:49:28;100009.59;;;2.03;57.74
78986;BME280;68384;55.750;48.746;2023-03-16T03:50:31;100002.69;;;2.02;58.03
78986;BME280;68384;55.750;48.746;2023-03-16T03:51:35;100006.44;;;2.07;57.73
78986;BME280;68384;55.750;48.746;2023-03-16T03:52:38;99996.91;;;2.04;58.06
78986;BME280;68384;55.750;48.746;2023-03-16T03:53:41;100005.00;;;2.10;57.91
78986;BME280;68384;55.750;48.746;2023-03-16T03:54:44;99992.00;;;2.07;58.32
78986;BME280;68384;55.750;48.746;2023-03-16T03:55:48;99998.31;;;2.12;57.98
78986;BME280;68384;55.750;48.746;2023-03-16T03:56:51;99991.53;;;2.13;57.95
78986;BME280;68384;55.750;48.746;2023-03-16T03:57:55;100007.97;;;2.16;58.39
78986;BME280;68384;55.750;48.746;2023-03-16T03:58:57;100000.28;;;2.16;57.96
78986;BME280;68384;55.750;48.746;2023-03-16T04:00:02;99988.19;;;2.14;57.78
78986;BME280;68384;55.750;48.746;2023-03-16T04:01:08;100005.28;;;2.15;57.67
78986;BME280;68384;55.750;48.746;2023-03-16T04:02:12;100004.53;;;2.16;57.50
78986;BME280;68384;55.750;48.746;2023-03-16T04:03:15;99995.97;;;2.15;57.00
78986;BME280;68384;55.750;48.746;2023-03-16T04:04:21;99993.53;;;2.17;57.54
78986;BME280;68384;55.750;48.746;2023-03-16T04:05:24;100001.97;;;2.16;57.54
78986;BME280;68384;55.750;48.746;2023-03-16T04:06:28;99990.38;;;2.21;57.27
78986;BME280;68384;55.750;48.746;2023-03-16T04:07:31;99995.69;;;2.24;57.17
78986;BME280;68384;55.750;48.746;2023-03-16T04:08:35;99983.00;;;2.25;56.80
78986;BME280;68384;55.750;48.746;2023-03-16T04:09:38;99972.47;;;2.21;57.30
78986;BME280;68384;55.750;48.746;2023-03-16T04:10:43;99985.06;;;2.31;57.42
78986;BME280;68384;55.750;48.746;2023-03-16T04:11:45;99985.19;;;2.32;57.44
78986;BME280;68384;55.750;48.746;2023-03-16T04:12:49;99987.06;;;2.35;57.36
78986;BME280;68384;55.750;48.746;2023-03-16T04:13:52;99979.38;;;2.35;56.93
78986;BME280;68384;55.750;48.746;2023-03-16T04:14:56;99976.84;;;2.35;57.07
78986;BME280;68384;55.750;48.746;2023-03-16T04:15:59;99971.59;;;2.33;56.45
78986;BME280;68384;55.750;48.746;2023-03-16T04:17:04;99972.59;;;2.35;56.79
78986;BME280;68384;55.750;48.746;2023-03-16T04:18:07;99973.66;;;2.39;56.71
78986;BME280;68384;55.750;48.746;2023-03-16T04:19:10;99978.78;;;2.39;57.01
78986;BME280;68384;55.750;48.746;2023-03-16T04:20:15;99980.97;;;2.33;56.48
78986;BME280;68384;55.750;48.746;2023-03-16T04:21:21;99987.34;;;2.39;56.74
78986;BME280;68384;55.750;48.746;2023-03-16T04:22:23;99985.47;;;2.37;56.79
78986;BME280;68384;55.750;48.746;2023-03-16T04:23:27;99995.91;;;2.40;57.09
78986;BME280;68384;55.750;48.746;2023-03-16T04:24:29;99965.69;;;2.21;56.54
78986;BME280;68384;55.750;48.746;2023-03-16T04:25:35;99983.59;;;2.34;56.04
78986;BME280;68384;55.750;48.746;2023-03-16T04:26:39;99986.88;;;2.45;56.31
78986;BME280;68384;55.750;48.746;2023-03-16T04:27:43;99990.44;;;2.47;56.23
78986;BME280;68384;55.750;48.746;2023-03-16T04:28:47;99991.22;;;2.46;55.73
78986;BME280;68384;55.750;48.746;2023-03-16T04:29:51;99999.09;;;2.49;56.24
78986;BME280;68384;55.750;48.746;2023-03-16T04:31:00;99995.84;;;2.51;56.01
78986;BME280;68384;55.750;48.746;2023-03-16T04:32:04;99999.50;;;2.55;55.42
78986;BME280;68384;55.750;48.746;2023-03-16T04:33:06;99988.25;;;2.53;54.97
78986;BME280;68384;55.750;48.746;2023-03-16T04:34:12;99991.44;;;2.62;55.19
78986;BME280;68384;55.750;48.746;2023-03-16T04:35:16;99985.44;;;2.62;55.33
78986;BME280;68384;55.750;48.746;2023-03-16T04:36:20;99996.75;;;2.65;55.07
78986;BME280;68384;55.750;48.746;2023-03-16T04:37:25;99986.53;;;2.65;55.42
78986;BME280;68384;55.750;48.746;2023-03-16T04:38:29;99984.72;;;2.64;55.21
78986;BME280;68384;55.750;48.746;2023-03-16T04:39:34;99984.84;;;2.66;54.87
78986;BME280;68384;55.750;48.746;2023-03-16T04:40:38;99982.19;;;2.64;54.79
78986;BME280;68384;55.750;48.746;2023-03-16T04:41:40;99979.81;;;2.67;54.80
78986;BME280;68384;55.750;48.746;2023-03-16T04:42:48;99984.94;;;2.67;55.15
78986;BME280;68384;55.750;48.746;2023-03-16T04:43:50;99980.78;;;2.69;55.58
78986;BME280;68384;55.750;48.746;2023-03-16T04:44:54;99982.50;;;2.69;55.03
78986;BME280;68384;55.750;48.746;2023-03-16T04:45:57;99979.03;;;2.68;54.79
78986;BME280;68384;55.750;48.746;2023-03-16T04:47:01;99939.34;;;2.48;55.35
78986;BME280;68384;55.750;48.746;2023-03-16T04:48:04;99978.25;;;2.69;54.87
78986;BME280;68384;55.750;48.746;2023-03-16T04:49:08;99951.25;;;2.48;54.73
78986;BME280;68384;55.750;48.746;2023-03-16T04:50:11;99985.84;;;2.68;54.84
78986;BME280;68384;55.750;48.746;2023-03-16T04:51:17;99988.31;;;2.66;55.05
78986;BME280;68384;55.750;48.746;2023-03-16T04:52:20;99977.66;;;2.60;55.18
78986;BME280;68384;55.750;48.746;2023-03-16T04:53:23;99994.88;;;2.63;54.56
78986;BME280;68384;55.750;48.746;2023-03-16T04:54:27;99993.22;;;2.63;54.63
78986;BME280;68384;55.750;48.746;2023-03-16T04:55:29;99996.75;;;2.65;54.90
78986;BME280;68384;55.750;48.746;2023-03-16T04:56:33;100000.28;;;2.67;54.86
78986;BME280;68384;55.750;48.746;2023-03-16T04:57:36;99990.88;;;2.66;54.83
78986;BME280;68384;55.750;48.746;2023-03-16T04:58:40;99992.41;;;2.64;54.49
78986;BME280;68384;55.750;48.746;2023-03-16T04:59:42;99990.47;;;2.60;54.81
78986;BME280;68384;55.750;48.746;2023-03-16T05:00:46;99985.91;;;2.56;54.30
78986;BME280;68384;55.750;48.746;2023-03-16T05:01:49;99984.44;;;2.59;54.77
78986;BME280;68384;55.750;48.746;2023-03-16T05:02:53;99982.78;;;2.60;54.67
78986;BME280;68384;55.750;48.746;2023-03-16T05:03:56;99957.66;;;2.41;55.00
78986;BME280;68384;55.750;48.746;2023-03-16T05:05:00;99972.44;;;2.58;54.83
78986;BME280;68384;55.750;48.746;2023-03-16T05:06:04;99977.06;;;2.64;54.69
78986;BME280;68384;55.750;48.746;2023-03-16T05:07:09;99979.94;;;2.69;54.14
78986;BME280;68384;55.750;48.746;2023-03-16T05:08:12;99982.59;;;2.70;54.51
78986;BME280;68384;55.750;48.746;2023-03-16T05:09:16;99980.91;;;2.71;54.63
78986;BME280;68384;55.750;48.746;2023-03-16T05:10:19;99984.56;;;2.74;54.15
78986;BME280;68384;55.750;48.746;2023-03-16T05:11:22;99989.19;;;2.80;54.03
78986;BME280;68384;55.750;48.746;2023-03-16T05:12:26;99991.75;;;2.80;53.96
78986;BME280;68384;55.750;48.746;2023-03-16T05:13:29;99990.38;;;2.85;54.49
78986;BME280;68384;55.750;48.746;2023-03-16T05:14:32;99989.56;;;2.86;53.88
78986;BME280;68384;55.750;48.746;2023-03-16T05:15:37;99991.63;;;2.91;53.98
78986;BME280;68384;55.750;48.746;2023-03-16T05:16:40;99985.81;;;2.94;54.02
78986;BME280;68384;55.750;48.746;2023-03-16T05:17:43;99984.28;;;2.96;53.97
78986;BME280;68384;55.750;48.746;2023-03-16T05:18:47;99987.91;;;2.99;53.55
78986;BME280;68384;55.750;48.746;2023-03-16T05:19:51;99987.91;;;2.99;54.15
78986;BME280;68384;55.750;48.746;2023-03-16T05:20:55;99990.16;;;3.08;53.88
78986;BME280;68384;55.750;48.746;2023-03-16T05:21:59;99982.59;;;3.09;53.58
78986;BME280;68384;55.750;48.746;2023-03-16T05:23:04;99983.66;;;3.13;53.93
78986;BME280;68384;55.750;48.746;2023-03-16T05:24:09;99967.03;;;3.06;53.56
78986;BME280;68384;55.750;48.746;2023-03-16T05:25:12;99976.97;;;3.15;52.60
78986;BME280;68384;55.750;48.746;2023-03-16T05:26:17;99977.06;;;3.16;52.88
78986;BME280;68384;55.750;48.746;2023-03-16T05:27:20;99978.84;;;3.17;52.81
78986;BME280;68384;55.750;48.746;2023-03-16T05:28:23;99974.69;;;3.19;52.89
78986;BME280;68384;55.750;48.746;2023-03-16T05:29:27;99971.03;;;3.16;53.20
78986;BME280;68384;55.750;48.746;2023-03-16T05:30:32;99979.03;;;3.21;53.18
78986;BME280;68384;55.750;48.746;2023-03-16T05:31:35;99980.78;;;3.22;53.14
78986;BME280;68384;55.750;48.746;2023-03-16T05:32:39;99979.41;;;3.27;53.12
78986;BME280;68384;55.750;48.746;2023-03-16T05:33:42;99976.94;;;3.28;53.02
78986;BME280;68384;55.750;48.746;2023-03-16T05:34:45;99964.03;;;3.27;52.72
78986;BME280;68384;55.750;48.746;2023-03-16T05:35:49;99973.00;;;3.33;52.63
78986;BME280;68384;55.750;48.746;2023-03-16T05:36:53;99974.28;;;3.40;52.48
78986;BME280;68384;55.750;48.746;2023-03-16T05:37:57;99971.72;;;3.40;51.94
78986;BME280;68384;55.750;48.746;2023-03-16T05:39:01;99974.53;;;3.44;52.43